logo tempoitalia

Diretta Meteo Roma Fiumicino, Italialunedì 31 agosto ore 06:20

Mappa
Sereno 20 °C Sereno 24 Ore: T.min 20 T.max 34
Ponente Nord Km/h 5.5 Punto di rugiada: 18 °C Umidità: 88% Visibilità: 10 Km
Il sole sorge alle: 06:35 Il sole tramonta alle: 19:46
31 Agosto 2026 06:20 tempo osservato: Sereno Sereno 20 88 1014 vento: Nord N 5.5
31 Agosto 2026 05:50 tempo osservato: Sereno Sereno 21 82 1014 vento: Nord NE 11.1
31 Agosto 2026 05:20 tempo osservato: Sereno Sereno 20 82 1014 vento: Nord N 5.5
31 Agosto 2026 04:50 tempo osservato: Sereno Sereno 21 82 1014 vento: Nord N 5.5
31 Agosto 2026 04:20 tempo osservato: Sereno Sereno 22 78 1014 vento: Nord N 3.7
31 Agosto 2026 03:50 tempo osservato: Sereno Sereno 23 73 1014 vento: Nord N 1.8
31 Agosto 2026 03:20 tempo osservato: Sereno Sereno 23 73 1014 vento: Nord N 3.7
31 Agosto 2026 02:50 tempo osservato: Sereno Sereno 23 78 1014 vento: Nord N 3.7
31 Agosto 2026 02:20 tempo osservato: Sereno Sereno 24 73 1014 vento: Nord N 5.5
31 Agosto 2026 01:50 tempo osservato: Sereno Sereno 24 73 1014 vento: Nord N 5.5
31 Agosto 2026 01:20 tempo osservato: Sereno Sereno 24 78 1014 vento: Nord N 3.7
31 Agosto 2026 00:50 tempo osservato: Sereno Sereno 25 73 1014 vento: Nord N 5.5
31 Agosto 2026 00:20 tempo osservato: Sereno Sereno 26 73 1013 vento: Nord O/NO 7.4
30 Agosto 2026 23:50 tempo osservato: Sereno Sereno 27 74 1013 vento: Nord N 5.5
30 Agosto 2026 23:20 tempo osservato: Sereno Sereno 28 69 1013 vento: Nord O/NO 14.8
30 Agosto 2026 22:50 tempo osservato: Sereno Sereno 28 65 1013 vento: Nord O/NO 16.7
30 Agosto 2026 22:20 tempo osservato: Sereno Sereno 28 69 1013 vento: Nord O/NO 16.7
30 Agosto 2026 21:50 tempo osservato: Sereno Sereno 28 69 1013 vento: Nord O 16.7
30 Agosto 2026 21:20 tempo osservato: Sereno Sereno 28 61 1013 vento: Nord O 14.8
30 Agosto 2026 20:50 tempo osservato: Sereno Sereno 28 65 1013 vento: Nord O/NO 13
30 Agosto 2026 20:20 tempo osservato: Sereno Sereno 28 74 1012 vento: Nord O 14.8
30 Agosto 2026 19:50 tempo osservato: Sereno Sereno 29 70 1012 vento: Nord O/NO 14.8
30 Agosto 2026 19:20 tempo osservato: Sereno Sereno 29 66 1012 vento: Nord O/NO 16.7
30 Agosto 2026 18:50 tempo osservato: Sereno Sereno 30 66 1012 vento: Nord O 22.2
30 Agosto 2026 18:20 tempo osservato: Sereno Sereno 30 66 1012 vento: Nord O/NO 22.2
30 Agosto 2026 17:50 tempo osservato: Sereno Sereno 30 70 1012 vento: Nord O/NO 25.9
30 Agosto 2026 17:20 tempo osservato: Sereno Sereno 30 70 1012 vento: Nord O 24
30 Agosto 2026 16:50 tempo osservato: Sereno Sereno 30 74 1012 vento: Nord O 25.9
30 Agosto 2026 16:20 tempo osservato: Sereno Sereno 31 70 1012 vento: Nord O 24
30 Agosto 2026 15:50 tempo osservato: Sereno Sereno 31 70 1012 vento: Nord O 24
30 Agosto 2026 15:20 tempo osservato: Sereno Sereno 32 66 1012 vento: Nord O 22.2
30 Agosto 2026 14:50 tempo osservato: Sereno Sereno 31 70 1012 vento: Nord O 25.9
30 Agosto 2026 14:20 tempo osservato: Sereno Sereno 32 66 1013 vento: Nord O 22.2
30 Agosto 2026 13:50 tempo osservato: Sereno Sereno 33 52 1013 vento: Nord O/SO 20.3
30 Agosto 2026 13:20 tempo osservato: Sereno Sereno 33 55 1013 vento: Nord O/SO 22.2
30 Agosto 2026 12:50 tempo osservato: Poco Nuvoloso Poco Nuvoloso 34 43 1013 vento: Nord O/SO 16.7
30 Agosto 2026 12:20 tempo osservato: Poco Nuvoloso Poco Nuvoloso 33 46 1013 vento: Nord O 16.7
30 Agosto 2026 11:50 tempo osservato: Poco Nuvoloso Poco Nuvoloso 32 59 1013 vento: Nord O 14.8
30 Agosto 2026 11:20 tempo osservato: Poco Nuvoloso Poco Nuvoloso 32 59 1013 vento: Nord N 7.4
30 Agosto 2026 10:50 tempo osservato: Poco Nuvoloso Poco Nuvoloso 32 59 1013 vento: Nord N 5.5
30 Agosto 2026 10:20 tempo osservato: Poco Nuvoloso Poco Nuvoloso 31 66 1013 vento: Nord N 7.4
30 Agosto 2026 09:50 tempo osservato: Poco Nuvoloso Poco Nuvoloso 30 74 1013 vento: Nord S/SO 9.3
30 Agosto 2026 09:20 tempo osservato: Nuvoloso Nuvoloso 30 66 1013 vento: Nord N 3.7
30 Agosto 2026 08:50 tempo osservato: Sereno Sereno 29 66 1013 vento: Nord N 5.5
30 Agosto 2026 08:20 tempo osservato: Sereno Sereno 27 74 1013 vento: Nord N 7.4
30 Agosto 2026 07:50 tempo osservato: Sereno Sereno 26 78 1013 vento: Nord N 5.5
30 Agosto 2026 07:20 tempo osservato: Sereno Sereno 25 78 1013 vento: Nord E 7.4
30 Agosto 2026 06:50 tempo osservato: Sereno Sereno 26 78 1012 vento: Nord E 11.1